Time;durP1;ratioP1;P1;durP2;ratioP2;P2;SDS_P1;SDS_P2;PMS_P1;PMS_P2;Temp;Humidity;BMP_temperature;BMP_pressure;BME280_temperature;BME280_humidity;BME280_pressure;Samples;Min_cycle;Max_cycle;Signal;HPM_P1;HPM_P2
2023/03/27 00:00:15;;;;;;;0.20;0.20;;;;;;;2.35;100.00;91950.09;2100943;28;20027;-86
2023/03/27 00:01:16;;;;;;;0.82;0.60;;;;;;;2.40;100.00;91942.47;2089967;28;20053;-85
2023/03/27 00:02:19;;;;;;;0.35;0.30;;;;;;;2.64;100.00;91942.63;2096106;28;20051;-85
2023/03/27 00:03:20;;;;;;;0.98;0.50;;;;;;;2.45;100.00;91943.94;2112690;28;20028;-85
2023/03/27 00:04:25;;;;;;;1.00;0.30;;;;;;;2.37;100.00;91938.00;2112944;28;20027;-86
2023/03/27 00:05:28;;;;;;;0.50;0.40;;;;;;;2.50;100.00;91946.16;2093361;28;20375;-85
2023/03/27 00:06:33;;;;;;;0.40;0.40;;;;;;;2.35;100.00;91953.47;2093126;28;20469;-85
2023/03/27 00:07:35;;;;;;;0.28;0.28;;;;;;;2.29;100.00;91955.03;2091242;28;20028;-86
2023/03/27 00:08:36;;;;;;;0.22;0.22;;;;;;;2.35;100.00;91958.75;2088854;28;20021;-85
2023/03/27 00:09:38;;;;;;;0.20;0.20;;;;;;;2.22;100.00;91955.84;2086764;28;20025;-86
2023/03/27 00:10:39;;;;;;;0.70;0.40;;;;;;;2.33;100.00;91960.25;2085499;28;20025;-85
2023/03/27 00:11:40;;;;;;;0.35;0.32;;;;;;;2.28;100.00;91956.16;2096682;28;20136;-85
2023/03/27 00:12:43;;;;;;;2.20;0.40;;;;;;;2.21;100.00;91957.00;2104688;28;20381;-85
2023/03/27 00:13:44;;;;;;;0.30;0.30;;;;;;;2.31;100.00;91963.28;2096697;28;20493;-85
2023/03/27 00:14:45;;;;;;;0.30;0.30;;;;;;;2.25;100.00;91964.88;2097107;28;20024;-85
2023/03/27 00:15:46;;;;;;;0.50;0.30;;;;;;;2.30;100.00;91972.34;2096829;28;20020;-85
2023/03/27 00:16:47;;;;;;;0.30;0.30;;;;;;;2.30;100.00;91972.34;2096391;28;20021;-85
2023/03/27 00:17:50;;;;;;;0.30;0.30;;;;;;;2.21;100.00;91972.81;2096888;28;20553;-84
2023/03/27 00:18:52;;;;;;;0.30;0.30;;;;;;;2.11;100.00;91978.94;2097070;28;20389;-85
2023/03/27 00:19:53;;;;;;;0.20;0.20;;;;;;;2.24;100.00;91976.56;2100767;28;20457;-86
2023/03/27 00:20:57;;;;;;;0.28;0.28;;;;;;;2.19;100.00;91974.31;2096287;28;20051;-85
2023/03/27 00:21:58;;;;;;;0.40;0.30;;;;;;;2.19;100.00;91982.97;2088443;28;20056;-85
2023/03/27 00:23:01;;;;;;;1.02;0.30;;;;;;;2.20;100.00;91981.13;2088060;28;20043;-85
2023/03/27 00:24:02;;;;;;;0.30;0.30;;;;;;;2.06;100.00;91983.84;2094876;28;20020;-85
2023/03/27 00:25:04;;;;;;;0.20;0.20;;;;;;;2.14;100.00;91982.66;2093859;28;20017;-85
2023/03/27 00:26:05;;;;;;;0.20;0.20;;;;;;;2.34;100.00;91988.88;2102516;28;20034;-85
2023/03/27 00:27:07;;;;;;;0.30;0.30;;;;;;;2.24;100.00;91984.47;2104597;28;20496;-85
2023/03/27 00:28:08;;;;;;;0.30;0.20;;;;;;;2.22;100.00;91984.09;2096232;28;20587;-85
2023/03/27 00:29:12;;;;;;;0.20;0.20;;;;;;;2.13;100.00;91991.72;2088699;28;20312;-85
2023/03/27 00:30:14;;;;;;;0.28;0.28;;;;;;;2.21;100.00;91988.63;2088752;28;20087;-85
2023/03/27 00:31:16;;;;;;;1.38;0.30;;;;;;;2.29;100.00;91991.22;2088491;28;20021;-85
2023/03/27 00:32:17;;;;;;;0.30;0.30;;;;;;;2.21;100.00;91999.16;2096678;28;20024;-85
2023/03/27 00:33:18;;;;;;;0.20;0.20;;;;;;;2.16;100.00;91996.22;2085778;28;20486;-86
2023/03/27 00:34:19;;;;;;;0.20;0.20;;;;;;;2.08;100.00;91998.16;2079284;28;20039;-86
2023/03/27 00:35:26;;;;;;;0.10;0.10;;;;;;;2.34;100.00;91996.06;2081079;28;20024;-86
2023/03/27 00:36:28;;;;;;;0.13;0.13;;;;;;;2.27;100.00;91996.84;2093869;28;20028;-86
2023/03/27 00:37:31;;;;;;;0.20;0.20;;;;;;;2.12;100.00;92004.16;2096526;28;20452;-86
2023/03/27 00:38:32;;;;;;;0.10;0.10;;;;;;;2.12;100.00;92000.75;2092181;28;20027;-86
2023/03/27 00:39:34;;;;;;;0.20;0.20;;;;;;;2.09;100.00;92009.44;2096472;28;20209;-85
2023/03/27 00:40:38;;;;;;;0.10;0.10;;;;;;;2.19;100.00;92011.22;2101908;28;20027;-86
2023/03/27 00:41:39;;;;;;;0.20;0.20;;;;;;;2.15;100.00;92006.00;2104600;28;20402;-86
2023/03/27 00:42:40;;;;;;;0.20;0.20;;;;;;;2.17;100.00;92005.63;2104168;28;20042;-86
2023/03/27 00:43:42;;;;;;;0.43;0.30;;;;;;;2.23;100.00;92007.41;2087062;28;20029;-86
2023/03/27 00:44:43;;;;;;;0.40;0.30;;;;;;;2.22;100.00;92008.56;2080608;28;20022;-86
2023/03/27 00:45:46;;;;;;;0.35;0.28;;;;;;;2.16;100.00;92009.38;2080167;28;20021;-86
2023/03/27 00:46:48;;;;;;;0.32;0.32;;;;;;;2.19;100.00;92009.34;2088127;28;20688;-86
2023/03/27 00:47:59;;;;;;;0.28;0.28;;;;;;;2.16;100.00;92017.31;2094396;28;20023;-85
2023/03/27 00:49:08;;;;;;;0.20;0.20;;;;;;;2.29;100.00;92015.69;2081673;28;20021;-85
2023/03/27 00:50:15;;;;;;;0.75;0.30;;;;;;;2.21;100.00;92019.50;2083192;28;20025;-85
2023/03/27 00:51:18;;;;;;;0.30;0.30;;;;;;;2.25;100.00;92020.97;2091479;28;20024;-85
2023/03/27 00:52:20;;;;;;;0.35;0.32;;;;;;;2.16;100.00;92019.94;2084504;28;20414;-85
2023/03/27 00:53:26;;;;;;;0.30;0.30;;;;;;;2.23;100.00;92012.69;2083894;28;20039;-86
2023/03/27 00:54:33;;;;;;;0.30;0.30;;;;;;;2.20;100.00;92024.03;2088485;28;20425;-86
2023/03/27 00:55:40;;;;;;;0.45;0.40;;;;;;;2.11;100.00;92020.31;2089711;28;20025;-86
2023/03/27 00:56:42;;;;;;;0.30;0.30;;;;;;;2.16;100.00;92025.94;2105112;28;20404;-85
2023/03/27 00:57:48;;;;;;;0.73;0.30;;;;;;;2.27;100.00;92029.22;2100729;28;20024;-85
2023/03/27 00:58:54;;;;;;;0.40;0.40;;;;;;;2.19;100.00;92021.78;2091634;28;20024;-86
2023/03/27 00:59:56;;;;;;;0.50;0.50;;;;;;;2.16;100.00;92018.03;2079964;28;20025;-85
2023/03/27 01:00:57;;;;;;;0.43;0.40;;;;;;;2.16;100.00;92030.47;2088784;28;20025;-85
2023/03/27 01:02:01;;;;;;;0.40;0.40;;;;;;;2.22;100.00;92027.03;2098799;28;20032;-85
2023/03/27 01:03:05;;;;;;;0.38;0.38;;;;;;;2.19;100.00;92030.44;2100598;28;20017;-85
2023/03/27 01:04:07;;;;;;;0.40;0.40;;;;;;;2.23;100.00;92041.69;2092841;28;20021;-85
2023/03/27 01:05:10;;;;;;;0.30;0.30;;;;;;;2.30;100.00;92032.25;2090368;28;20060;-85
2023/03/27 01:06:15;;;;;;;0.50;0.50;;;;;;;2.38;100.00;92049.50;2091634;28;20028;-85
2023/03/27 01:07:16;;;;;;;0.40;0.40;;;;;;;2.40;100.00;92047.97;2096593;28;20121;-86
2023/03/27 01:08:17;;;;;;;0.50;0.50;;;;;;;2.32;100.00;92040.50;2096284;28;20431;-85
2023/03/27 01:09:19;;;;;;;0.30;0.30;;;;;;;2.24;100.00;92037.19;2079056;28;20067;-84
2023/03/27 01:10:20;;;;;;;0.20;0.20;;;;;;;2.25;100.00;92043.97;2084445;28;20018;-85
2023/03/27 01:11:34;;;;;;;0.35;0.35;;;;;;;2.29;100.00;92049.22;2098256;28;20021;-86
2023/03/27 01:13:02;;;;;;;0.30;0.30;;;;;;;2.32;100.00;92048.41;2096103;28;20646;-85
2023/03/27 01:14:27;;;;;;;0.30;0.30;;;;;;;2.25;100.00;92044.72;2095134;28;20068;-86
2023/03/27 01:15:31;;;;;;;0.40;0.40;;;;;;;2.25;100.00;92047.34;2092554;28;20101;-86
2023/03/27 01:16:57;;;;;;;0.50;0.40;;;;;;;2.29;100.00;92057.13;2093474;28;20040;-85
2023/03/27 01:18:03;;;;;;;0.30;0.30;;;;;;;2.32;100.00;92053.69;2097415;28;20529;-86
2023/03/27 01:19:34;;;;;;;0.40;0.40;;;;;;;2.36;100.00;92059.69;2104358;28;20077;-84
2023/03/27 01:21:12;;;;;;;0.28;0.28;;;;;;;2.30;100.00;92058.59;2087177;28;20041;-85
2023/03/27 01:22:38;;;;;;;0.40;0.40;;;;;;;2.24;100.00;92066.19;2097641;28;20620;-86
2023/03/27 01:24:19;;;;;;;0.30;0.30;;;;;;;2.27;100.00;92060.13;2106787;28;20438;-86
2023/03/27 01:25:51;;;;;;;0.38;0.38;;;;;;;2.21;100.00;92061.69;2103823;28;20035;-85
2023/03/27 01:27:02;;;;;;;0.20;0.20;;;;;;;2.30;100.00;92069.16;2104075;28;20030;-85
2023/03/27 01:28:34;;;;;;;0.30;0.30;;;;;;;2.26;100.00;92071.81;2096019;28;20067;-86
2023/03/27 01:29:36;;;;;;;0.30;0.30;;;;;;;2.37;100.00;92069.84;2088197;28;20063;-85
2023/03/27 01:30:40;;;;;;;0.40;0.40;;;;;;;2.35;100.00;92069.47;2094254;28;20073;-85
2023/03/27 01:32:25;;;;;;;0.20;0.20;;;;;;;2.25;100.00;92070.31;2100387;28;20050;-86
2023/03/27 01:33:57;;;;;;;0.30;0.30;;;;;;;2.24;100.00;92077.50;2089929;28;20481;-86
2023/03/27 01:35:24;;;;;;;0.55;0.47;;;;;;;2.21;100.00;92074.88;2093014;28;20217;-86
2023/03/27 01:36:50;;;;;;;0.40;0.40;;;;;;;2.26;100.00;92079.72;2096138;28;20534;-86
2023/03/27 01:38:08;;;;;;;0.40;0.40;;;;;;;2.23;100.00;92083.13;2099779;28;20036;-85
2023/03/27 01:39:12;;;;;;;0.30;0.30;;;;;;;2.32;100.00;92083.44;2095383;28;20037;-86
2023/03/27 01:40:19;;;;;;;0.30;0.30;;;;;;;2.28;100.00;92082.72;2091903;28;20112;-85
2023/03/27 01:41:52;;;;;;;0.45;0.45;;;;;;;2.36;100.00;92093.97;2103476;28;20077;-86
2023/03/27 01:43:10;;;;;;;0.40;0.30;;;;;;;2.43;100.00;92091.28;2087914;28;20059;-85
2023/03/27 01:44:57;;;;;;;1.00;0.40;;;;;;;2.21;100.00;92093.31;2104025;28;20035;-86
2023/03/27 01:46:17;;;;;;;0.40;0.40;;;;;;;2.14;100.00;92093.38;2085893;28;20055;-86
2023/03/27 01:47:34;;;;;;;0.52;0.47;;;;;;;2.22;100.00;92095.56;2095836;28;20083;-86
2023/03/27 01:48:44;;;;;;;0.30;0.30;;;;;;;2.30;100.00;92093.63;2094905;28;20537;-86
2023/03/27 01:49:57;;;;;;;;;;;;;;;2.27;100.00;92105.69;2097531;28;20524;-86
2023/03/27 01:51:07;;;;;;;0.25;0.25;;;;;;;2.24;100.00;92100.47;2095939;28;19916;-85
2023/03/27 01:52:15;;;;;;;0.40;0.40;;;;;;;2.29;100.00;92094.03;2081789;28;20025;-86
2023/03/27 01:53:24;;;;;;;0.40;0.40;;;;;;;2.20;100.00;92105.00;2081514;28;20025;-86
2023/03/27 01:54:31;;;;;;;0.30;0.30;;;;;;;2.09;100.00;92107.72;2083922;28;20502;-86
2023/03/27 01:55:40;;;;;;;0.20;0.20;;;;;;;2.10;100.00;92103.19;2088376;28;20033;-85
2023/03/27 01:56:50;;;;;;;0.30;0.30;;;;;;;2.11;100.00;92105.44;2094233;28;20032;-86
2023/03/27 01:58:04;;;;;;;0.40;0.40;;;;;;;2.19;100.00;92111.41;2088755;28;20024;-86
2023/03/27 01:59:17;;;;;;;0.25;0.25;;;;;;;2.23;100.00;92112.13;2091658;28;20132;-85
2023/03/27 02:00:21;;;;;;;0.30;0.30;;;;;;;2.26;100.00;92114.75;2089328;28;20032;-85
2023/03/27 02:01:30;;;;;;;0.55;0.30;;;;;;;2.20;100.00;92118.19;2076124;28;20025;-85
2023/03/27 02:02:32;;;;;;;0.30;0.30;;;;;;;2.06;100.00;92113.00;2089846;28;20029;-86
2023/03/27 02:03:38;;;;;;;0.90;0.30;;;;;;;2.01;100.00;92119.41;2096140;28;20067;-86
2023/03/27 02:04:46;;;;;;;0.38;0.38;;;;;;;2.01;100.00;92119.41;2088356;28;20036;-85
2023/03/27 02:06:15;;;;;;;0.45;0.45;;;;;;;2.07;100.00;92119.78;2084045;28;20120;-85
2023/03/27 02:07:24;;;;;;;0.40;0.40;;;;;;;2.07;100.00;92114.50;2096671;28;20063;-85
2023/03/27 02:09:03;;;;;;;0.30;0.30;;;;;;;2.30;100.00;92125.28;2083997;28;20756;-85
2023/03/27 02:10:10;;;;;;;0.30;0.30;;;;;;;2.26;100.00;92127.19;2085142;28;20386;-85
2023/03/27 02:11:11;;;;;;;0.30;0.30;;;;;;;2.20;100.00;92123.47;2088978;28;20365;-85
2023/03/27 02:12:20;;;;;;;0.40;0.40;;;;;;;2.09;100.00;92120.13;2095979;28;20119;-86
2023/03/27 02:13:56;;;;;;;0.40;0.40;;;;;;;1.99;100.00;92126.97;2088732;28;20039;-86
2023/03/27 02:15:26;;;;;;;0.35;0.35;;;;;;;2.00;100.00;92125.84;2070695;28;20033;-85
2023/03/27 02:16:33;;;;;;;0.40;0.40;;;;;;;1.97;100.00;92132.63;2092116;28;20381;-85
2023/03/27 02:17:40;;;;;;;0.38;0.38;;;;;;;2.08;100.00;92131.81;2087570;28;20036;-85
2023/03/27 02:20:13;;;;;;;;;;;;;;;1.98;100.00;92131.50;2134860;27;20556;-82
2023/03/27 02:21:15;;;;;;;0.40;0.40;;;;;;;2.10;100.00;92140.09;2125543;27;19915;-82
2023/03/27 02:22:22;;;;;;;0.50;0.50;;;;;;;2.03;100.00;92140.88;2116402;27;20115;-83
2023/03/27 02:23:23;;;;;;;0.40;0.40;;;;;;;1.97;100.00;92135.25;2110675;28;20027;-85
2023/03/27 02:24:26;;;;;;;0.50;0.50;;;;;;;1.96;100.00;92139.03;2120409;27;20122;-80
2023/03/27 02:25:40;;;;;;;0.60;0.60;;;;;;;1.98;100.00;92149.19;2124597;27;20404;-80
2023/03/27 02:26:42;;;;;;;0.73;0.73;;;;;;;1.96;100.00;92146.19;2111216;28;20038;-80
2023/03/27 02:27:47;;;;;;;0.50;0.50;;;;;;;1.91;100.00;92149.97;2111539;28;20035;-81
2023/03/27 02:29:25;;;;;;;0.55;0.52;;;;;;;1.89;100.00;92152.25;2119978;27;20031;-81
2023/03/27 02:30:39;;;;;;;0.50;0.50;;;;;;;1.95;100.00;92150.72;2120644;27;20045;-81
2023/03/27 02:31:57;;;;;;;0.50;0.50;;;;;;;1.88;100.00;92150.72;2113427;28;20024;-80
2023/03/27 02:33:26;;;;;;;0.50;0.50;;;;;;;2.12;100.00;92156.28;2117366;27;20463;-80
2023/03/27 02:34:33;;;;;;;0.43;0.43;;;;;;;2.02;100.00;92155.19;2112049;28;20039;-80
2023/03/27 02:36:19;;;;;;;0.50;0.50;;;;;;;1.95;100.00;92155.97;2111425;28;20110;-80
2023/03/27 02:37:45;;;;;;;0.57;0.57;;;;;;;1.95;100.00;92155.97;2088611;28;20139;-81
2023/03/27 02:39:15;;;;;;;0.50;0.50;;;;;;;2.05;100.00;92159.69;2103345;28;20035;-81
2023/03/27 02:40:19;;;;;;;;;;;;;;;2.14;100.00;92167.16;2109471;28;20039;-81
2023/03/27 02:41:33;;;;;;;0.50;0.50;;;;;;;2.03;100.00;92164.59;2120027;27;20059;-81
2023/03/27 02:42:37;;;;;;;0.50;0.50;;;;;;;1.96;100.00;92169.91;2128088;27;20089;-82
2023/03/27 02:43:46;;;;;;;0.55;0.55;;;;;;;1.94;100.00;92172.94;2124022;27;20035;-80
2023/03/27 02:44:57;;;;;;;0.40;0.40;;;;;;;2.07;100.00;92170.59;2119027;27;20508;-81
2023/03/27 02:46:11;;;;;;;0.82;0.70;;;;;;;1.95;100.00;92171.78;2112755;28;20031;-81
2023/03/27 02:47:31;;;;;;;0.50;0.50;;;;;;;1.86;100.00;92176.72;2114590;27;20028;-80
2023/03/27 02:48:38;;;;;;;0.65;0.50;;;;;;;1.84;100.00;92173.72;2118303;27;20027;-81
2023/03/27 02:49:45;;;;;;;0.60;0.60;;;;;;;1.88;100.00;92173.69;2111073;28;20139;-81
2023/03/27 02:50:53;;;;;;;0.50;0.50;;;;;;;1.84;100.00;92180.88;2113057;27;20027;-80
2023/03/27 02:52:06;;;;;;;0.50;0.50;;;;;;;1.87;100.00;92170.31;2112491;27;20038;-81
2023/03/27 02:53:11;;;;;;;0.60;0.60;;;;;;;1.92;100.00;92179.72;2118280;27;20452;-81
2023/03/27 02:54:34;;;;;;;0.50;0.50;;;;;;;1.83;100.00;92187.28;2126107;27;20027;-81
2023/03/27 02:55:40;;;;;;;0.50;0.50;;;;;;;1.87;100.00;92185.38;2130506;27;20117;-80
2023/03/27 02:56:50;;;;;;;0.55;0.52;;;;;;;2.00;100.00;92194.34;2119835;28;20027;-81
2023/03/27 02:58:02;;;;;;;0.50;0.50;;;;;;;1.83;100.00;92185.38;2103871;28;20472;-80
2023/03/27 02:59:13;;;;;;;0.50;0.50;;;;;;;1.77;100.00;92198.22;2103601;28;20024;-82
2023/03/27 03:00:19;;;;;;;0.50;0.50;;;;;;;1.80;100.00;92201.97;2114080;27;20023;-80
2023/03/27 03:01:22;;;;;;;1.35;0.50;;;;;;;1.77;100.00;92208.75;2119142;27;20092;-81
2023/03/27 03:02:32;;;;;;;0.52;0.52;;;;;;;1.72;100.00;92201.25;2118389;27;20035;-79
2023/03/27 03:03:40;;;;;;;0.52;0.52;;;;;;;1.77;100.00;92210.63;2114949;28;20114;-82
2023/03/27 03:05:20;;;;;;;0.50;0.50;;;;;;;1.70;100.00;92203.50;2104772;28;20142;-81
2023/03/27 03:06:30;;;;;;;0.50;0.50;;;;;;;1.86;100.00;92208.34;2095971;28;20134;-82
2023/03/27 03:07:33;;;;;;;0.82;0.50;;;;;;;2.05;100.00;92211.66;2091778;28;20119;-81
2023/03/27 03:08:38;;;;;;;0.73;0.73;;;;;;;1.86;100.00;92207.59;2094003;28;20044;-81
2023/03/27 03:09:41;;;;;;;0.70;0.70;;;;;;;1.89;100.00;92223.41;2083814;28;20049;-81
2023/03/27 03:10:44;;;;;;;0.70;0.70;;;;;;;1.85;100.00;92220.03;2081558;28;20088;-81
2023/03/27 03:11:50;;;;;;;0.75;0.70;;;;;;;1.79;100.00;92226.06;2098127;28;20516;-81
2023/03/27 03:12:51;;;;;;;0.70;0.70;;;;;;;1.76;100.00;92230.97;2115353;27;20031;-80
2023/03/27 03:13:55;;;;;;;1.50;0.80;;;;;;;1.71;100.00;92230.59;2122546;27;20035;-76
2023/03/27 03:14:56;;;;;;;1.00;0.77;;;;;;;1.75;100.00;92228.69;2128531;27;20030;-78
2023/03/27 03:15:57;;;;;;;1.15;0.70;;;;;;;1.95;100.00;92234.28;2114617;28;20035;-77
2023/03/27 03:16:58;;;;;;;0.80;0.80;;;;;;;1.87;100.00;92240.72;2121492;27;20034;-78
2023/03/27 03:17:59;;;;;;;0.63;0.63;;;;;;;1.77;100.00;92237.72;2138032;27;20022;-77
2023/03/27 03:19:00;;;;;;;0.80;0.80;;;;;;;1.83;100.00;92240.72;2128370;27;20519;-78
2023/03/27 03:20:03;;;;;;;0.80;0.80;;;;;;;1.73;100.00;92244.88;2120295;27;20024;-78
2023/03/27 03:21:05;;;;;;;0.82;0.80;;;;;;;1.75;100.00;92244.50;2128455;27;20042;-76
2023/03/27 03:22:06;;;;;;;0.60;0.60;;;;;;;1.73;100.00;92252.03;2129331;27;20041;-80
2023/03/27 03:23:07;;;;;;;1.52;0.65;;;;;;;1.68;100.00;92255.06;2129013;27;20031;-79
2023/03/27 03:24:09;;;;;;;0.70;0.70;;;;;;;1.68;100.00;92260.34;2137644;27;20034;-79
2023/03/27 03:25:11;;;;;;;0.63;0.63;;;;;;;1.65;100.00;92258.47;2136851;27;20034;-80
2023/03/27 03:26:12;;;;;;;2.85;0.70;;;;;;;1.52;100.00;92256.22;2126069;27;20031;-79
2023/03/27 03:27:13;;;;;;;1.20;0.63;;;;;;;1.49;100.00;92259.63;2118400;27;20483;-79
2023/03/27 03:28:17;;;;;;;1.50;0.55;;;;;;;1.46;100.00;92263.03;2127687;27;20034;-79
2023/03/27 03:29:18;;;;;;;0.57;0.50;;;;;;;1.44;100.00;92264.50;2128127;27;20060;-79
2023/03/27 03:30:19;;;;;;;0.57;0.57;;;;;;;1.38;100.00;92263.41;2129293;27;20112;-78
2023/03/27 03:31:21;;;;;;;0.50;0.50;;;;;;;1.42;100.00;92267.53;2133406;27;20023;-78
2023/03/27 03:32:22;;;;;;;0.73;0.57;;;;;;;1.51;100.00;92267.16;2135870;27;20030;-79
2023/03/27 03:33:24;;;;;;;0.82;0.52;;;;;;;1.53;100.00;92272.78;2132814;27;20041;-79
2023/03/27 03:34:26;;;;;;;0.57;0.57;;;;;;;1.49;100.00;92264.13;2114610;28;20035;-79
2023/03/27 03:35:28;;;;;;;0.45;0.45;;;;;;;1.50;100.00;92276.94;2106453;27;20139;-79
2023/03/27 03:36:31;;;;;;;0.40;0.40;;;;;;;1.45;100.00;92281.84;2110180;28;20027;-81
2023/03/27 03:37:37;;;;;;;0.50;0.50;;;;;;;1.37;100.00;92281.09;2119408;27;20024;-85
2023/03/27 03:38:40;;;;;;;0.70;0.70;;;;;;;1.32;100.00;92288.59;2112468;28;20055;-84
2023/03/27 03:39:42;;;;;;;0.60;0.60;;;;;;;1.29;100.00;92292.75;2106202;28;20432;-85
2023/03/27 03:41:03;;;;;;;0.88;0.88;;;;;;;1.15;100.00;92290.88;2109915;28;20066;-88
2023/03/27 03:42:10;;;;;;;0.70;0.70;;;;;;;1.10;100.00;92299.16;2104132;28;20067;-84
2023/03/27 03:43:13;;;;;;;0.70;0.70;;;;;;;1.07;100.00;92296.50;2102177;28;20047;-83
2023/03/27 03:44:15;;;;;;;0.73;0.68;;;;;;;1.18;100.00;92297.25;2108671;28;20028;-81
2023/03/27 03:45:18;;;;;;;0.50;0.50;;;;;;;1.20;100.00;92301.03;2113775;28;20088;-83
2023/03/27 03:46:19;;;;;;;0.80;0.80;;;;;;;1.17;100.00;92306.28;2106354;28;20497;-79
2023/03/27 03:47:21;;;;;;;1.55;0.80;;;;;;;1.15;100.00;92306.66;2106170;28;20024;-78
2023/03/27 03:48:22;;;;;;;0.65;0.60;;;;;;;1.26;100.00;92309.28;2118281;27;20040;-78
2023/03/27 03:49:25;;;;;;;1.52;0.75;;;;;;;1.32;100.00;92312.28;2121070;27;20077;-79
2023/03/27 03:50:26;;;;;;;0.85;0.85;;;;;;;1.28;100.00;92308.94;2131801;27;20031;-79
2023/03/27 03:51:30;;;;;;;0.90;0.80;;;;;;;1.21;100.00;92318.31;2119502;27;20674;-78
2023/03/27 03:52:33;;;;;;;0.70;0.70;;;;;;;1.33;100.00;92319.06;2120196;27;20076;-79
2023/03/27 03:53:34;;;;;;;1.20;0.88;;;;;;;1.24;100.00;92322.09;2127795;27;20462;-78
2023/03/27 03:54:37;;;;;;;0.73;0.73;;;;;;;1.32;100.00;92331.50;2131403;27;20109;-78
2023/03/27 03:55:38;;;;;;;0.93;0.90;;;;;;;1.32;100.00;92325.44;2121839;27;20102;-78
2023/03/27 03:56:40;;;;;;;0.95;0.95;;;;;;;1.31;100.00;92327.31;2122610;27;20031;-80
2023/03/27 03:57:50;;;;;;;0.98;0.85;;;;;;;1.18;100.00;92320.94;2122968;27;20030;-80
2023/03/27 03:58:59;;;;;;;0.75;0.70;;;;;;;1.01;100.00;92332.97;2106189;28;20036;-81
2023/03/27 04:00:27;;;;;;;1.50;0.80;;;;;;;1.08;100.00;92337.47;2113586;27;20046;-80
2023/03/27 04:01:28;;;;;;;0.80;0.80;;;;;;;1.16;100.00;92339.75;2124219;27;20035;-82
2023/03/27 04:02:29;;;;;;;0.70;0.70;;;;;;;1.05;100.00;92338.97;2117936;27;20026;-81
2023/03/27 04:03:33;;;;;;;0.60;0.60;;;;;;;1.01;100.00;92343.50;2097992;28;20036;-80
2023/03/27 04:04:34;;;;;;;0.80;0.80;;;;;;;1.08;100.00;92348.00;2105625;28;20035;-81
2023/03/27 04:05:36;;;;;;;1.45;0.70;;;;;;;0.94;100.00;92352.13;2107108;28;20036;-81
2023/03/27 04:06:37;;;;;;;1.00;0.70;;;;;;;0.97;100.00;92355.91;2118133;27;20056;-80
2023/03/27 04:07:38;;;;;;;0.80;0.80;;;;;;;0.90;100.00;92359.25;2109342;28;20597;-81
2023/03/27 04:08:39;;;;;;;0.88;0.88;;;;;;;0.85;100.00;92357.00;2104949;27;20391;-80
2023/03/27 04:09:40;;;;;;;0.75;0.70;;;;;;;0.80;100.00;92367.13;2113746;28;20046;-81
2023/03/27 04:10:41;;;;;;;1.55;1.00;;;;;;;0.81;100.00;92366.00;2113812;27;20020;-79
2023/03/27 04:11:42;;;;;;;1.00;0.80;;;;;;;0.88;100.00;92366.78;2113587;28;20193;-79
2023/03/27 04:12:48;;;;;;;1.13;1.02;;;;;;;0.78;100.00;92362.22;2108002;27;20035;-79
2023/03/27 04:13:49;;;;;;;1.20;1.00;;;;;;;0.72;100.00;92368.97;2112811;28;20093;-78
2023/03/27 04:14:53;;;;;;;1.30;1.20;;;;;;;0.74;100.00;92375.38;2109606;27;20135;-78
2023/03/27 04:15:54;;;;;;;1.52;0.90;;;;;;;0.84;100.00;92375.78;2126796;27;20117;-78
2023/03/27 04:16:58;;;;;;;1.20;1.00;;;;;;;0.90;100.00;92387.44;2128279;27;20106;-78
2023/03/27 04:17:59;;;;;;;2.80;1.20;;;;;;;0.86;100.00;92376.16;2131020;27;20099;-79
2023/03/27 04:19:01;;;;;;;1.42;1.33;;;;;;;0.85;100.00;92383.31;2111551;28;20110;-79
2023/03/27 04:20:05;;;;;;;3.42;2.17;;;;;;;0.79;100.00;92389.28;2110534;27;20162;-78
2023/03/27 04:21:13;;;;;;;3.83;2.28;;;;;;;0.95;100.00;92384.44;2121587;27;20031;-77
2023/03/27 04:22:21;;;;;;;3.08;2.40;;;;;;;0.80;100.00;92378.41;2116200;27;20030;-78
2023/03/27 04:23:29;;;;;;;3.50;2.80;;;;;;;0.76;100.00;92380.28;2118869;27;20054;-79
2023/03/27 04:24:36;;;;;;;3.75;3.00;;;;;;;0.85;100.00;92383.31;2109590;28;20085;-80
2023/03/27 04:25:37;;;;;;;4.85;3.95;;;;;;;0.70;100.00;92387.00;2095222;28;20031;-77
2023/03/27 04:26:38;;;;;;;7.00;3.95;;;;;;;0.69;100.00;92385.50;2100454;28;20031;-79
2023/03/27 04:27:42;;;;;;;6.43;3.80;;;;;;;0.88;100.00;92389.69;2116798;27;20050;-78
2023/03/27 04:28:42;;;;;;;5.85;4.25;;;;;;;0.72;100.00;92396.03;2126052;27;20768;-78
2023/03/27 04:29:46;;;;;;;10.70;4.85;;;;;;;0.74;100.00;92387.75;2119380;27;20046;-79
2023/03/27 04:30:49;;;;;;;6.53;4.50;;;;;;;0.71;100.00;92397.16;2111298;27;20031;-78
2023/03/27 04:31:50;;;;;;;6.38;4.90;;;;;;;0.70;100.00;92392.25;2119141;27;20099;-79
2023/03/27 04:32:52;;;;;;;8.52;5.43;;;;;;;0.63;100.00;92400.88;2118948;27;20101;-79
2023/03/27 04:33:54;;;;;;;8.65;5.85;;;;;;;0.58;100.00;92393.38;2114139;27;20031;-81
2023/03/27 04:34:55;;;;;;;9.65;5.50;;;;;;;0.60;100.00;92395.63;2110122;28;20031;-78
2023/03/27 04:35:56;;;;;;;11.40;5.97;;;;;;;0.52;100.00;92394.06;2115356;27;20034;-80
2023/03/27 04:36:57;;;;;;;8.90;5.93;;;;;;;0.70;100.00;92406.19;2124581;27;20030;-80
2023/03/27 04:38:00;;;;;;;6.50;5.80;;;;;;;0.54;100.00;92408.38;2119487;27;20042;-81
2023/03/27 04:39:02;;;;;;;9.27;5.40;;;;;;;0.59;100.00;92399.38;2119097;27;20023;-81
2023/03/27 04:40:07;;;;;;;8.82;4.88;;;;;;;0.63;100.00;92416.66;2109902;28;20039;-76
2023/03/27 04:41:08;;;;;;;7.45;5.57;;;;;;;0.59;100.00;92415.16;2102459;28;20020;-82
2023/03/27 04:42:09;;;;;;;7.55;5.35;;;;;;;0.54;100.00;92403.09;2108863;28;20038;-79
2023/03/27 04:43:13;;;;;;;7.53;5.63;;;;;;;0.48;100.00;92415.88;2107757;28;20456;-81
2023/03/27 04:44:18;;;;;;;8.48;4.88;;;;;;;0.43;100.00;92415.44;2105304;28;20040;-77
2023/03/27 04:45:19;;;;;;;12.73;5.95;;;;;;;0.41;100.00;92415.81;2107741;27;20030;-77
2023/03/27 04:46:22;;;;;;;8.95;5.47;;;;;;;0.40;100.00;92414.31;2108790;28;20038;-78
2023/03/27 04:47:24;;;;;;;8.18;6.30;;;;;;;0.46;100.00;92419.97;2102422;28;20056;-76
2023/03/27 04:48:25;;;;;;;8.23;5.95;;;;;;;0.49;100.00;92414.72;2102868;28;20577;-78
2023/03/27 04:49:28;;;;;;;8.85;6.13;;;;;;;0.44;100.00;92403.78;2110759;28;20031;-76
2023/03/27 04:50:29;;;;;;;11.63;6.63;;;;;;;0.30;100.00;92412.38;2102501;28;20032;-79
2023/03/27 04:51:31;;;;;;;8.77;5.78;;;;;;;0.34;100.00;92422.91;2102432;27;20055;-77
2023/03/27 04:52:32;;;;;;;8.98;6.95;;;;;;;0.33;100.00;92437.19;2119479;27;20461;-78
2023/03/27 04:53:55;;;;;;;8.77;5.93;;;;;;;0.34;100.00;92434.19;2116552;27;20056;-78
2023/03/27 04:54:57;;;;;;;7.90;5.53;;;;;;;0.27;100.00;92447.28;2117143;27;20108;-79
2023/03/27 04:56:00;;;;;;;10.27;6.15;;;;;;;0.27;100.00;92447.28;2097650;28;20025;-79
2023/03/27 04:57:02;;;;;;;12.73;7.10;;;;;;;0.26;100.00;92448.38;2103065;27;20122;-76
2023/03/27 04:58:11;;;;;;;10.35;6.57;;;;;;;0.29;100.00;92455.56;2110407;28;20528;-76
2023/03/27 04:59:12;;;;;;;6.90;6.20;;;;;;;0.37;100.00;92454.47;2111188;27;20679;-79
2023/03/27 05:00:18;;;;;;;9.15;6.50;;;;;;;0.45;100.00;92455.28;2094758;28;20043;-78
2023/03/27 05:01:18;;;;;;;8.85;6.55;;;;;;;0.48;100.00;92460.56;2103064;27;20032;-79
2023/03/27 05:02:20;;;;;;;8.10;5.35;;;;;;;0.61;100.00;92463.59;2101396;28;20028;-76
2023/03/27 05:03:23;;;;;;;10.18;6.28;;;;;;;0.70;100.00;92471.16;2106699;28;20035;-78
2023/03/27 05:04:27;;;;;;;12.15;6.45;;;;;;;0.52;100.00;92475.56;2109032;28;20793;-78
2023/03/27 05:05:29;;;;;;;8.30;5.45;;;;;;;0.54;100.00;92482.00;2096244;28;20048;-77
2023/03/27 05:06:31;;;;;;;10.10;6.43;;;;;;;0.47;100.00;92474.81;2102710;28;20039;-77
2023/03/27 05:07:33;;;;;;;9.88;6.28;;;;;;;0.43;100.00;92491.69;2110806;28;20030;-74
2023/03/27 05:08:34;;;;;;;12.23;5.70;;;;;;;0.47;100.00;92484.56;2118258;27;20336;-77
2023/03/27 05:09:35;;;;;;;7.25;5.40;;;;;;;0.53;100.00;92488.38;2131849;27;20026;-78
2023/03/27 05:10:36;;;;;;;9.00;5.40;;;;;;;0.46;100.00;92489.06;2122421;27;20403;-80
2023/03/27 05:11:37;;;;;;;5.97;4.82;;;;;;;0.58;100.00;92495.16;2122868;27;20031;-79
2023/03/27 05:12:46;;;;;;;9.98;5.60;;;;;;;0.53;100.00;92488.38;2122576;27;20031;-78
2023/03/27 05:13:48;;;;;;;8.13;5.50;;;;;;;0.43;100.00;92487.16;2121289;27;20076;-76
2023/03/27 05:14:48;;;;;;;7.15;4.57;;;;;;;0.29;100.00;92494.97;2121084;27;20118;-77
2023/03/27 05:15:50;;;;;;;5.53;4.95;;;;;;;0.19;100.00;92493.78;2129115;27;20537;-77
2023/03/27 05:16:51;;;;;;;6.28;4.38;;;;;;;0.29;100.00;92492.34;2107715;28;20037;-76